sensor_id;sensor_type;location;lat;lon;timestamp;P1;durP1;ratioP1;P2;durP2;ratioP2
25213;SDS011;13160;51.834;4.706;2023-06-14T00:00:15;6.78;;;4.10;;
25213;SDS011;13160;51.834;4.706;2023-06-14T00:02:44;7.85;;;4.50;;
25213;SDS011;13160;51.834;4.706;2023-06-14T00:05:13;7.85;;;4.85;;
25213;SDS011;13160;51.834;4.706;2023-06-14T00:07:42;9.02;;;4.78;;
25213;SDS011;13160;51.834;4.706;2023-06-14T00:10:10;8.30;;;4.70;;
25213;SDS011;13160;51.834;4.706;2023-06-14T00:12:39;7.57;;;4.57;;
25213;SDS011;13160;51.834;4.706;2023-06-14T00:15:10;8.50;;;4.93;;
25213;SDS011;13160;51.834;4.706;2023-06-14T00:17:38;8.00;;;4.60;;
25213;SDS011;13160;51.834;4.706;2023-06-14T00:20:07;8.68;;;5.00;;
25213;SDS011;13160;51.834;4.706;2023-06-14T00:22:37;9.40;;;4.60;;
25213;SDS011;13160;51.834;4.706;2023-06-14T00:25:06;11.00;;;4.72;;
25213;SDS011;13160;51.834;4.706;2023-06-14T00:27:53;10.20;;;4.60;;
25213;SDS011;13160;51.834;4.706;2023-06-14T00:30:24;6.30;;;4.55;;
25213;SDS011;13160;51.834;4.706;2023-06-14T00:32:57;8.23;;;5.10;;
25213;SDS011;13160;51.834;4.706;2023-06-14T00:35:26;6.68;;;4.60;;
25213;SDS011;13160;51.834;4.706;2023-06-14T00:37:55;6.78;;;4.70;;
25213;SDS011;13160;51.834;4.706;2023-06-14T00:40:23;7.65;;;5.35;;
25213;SDS011;13160;51.834;4.706;2023-06-14T00:42:52;9.50;;;4.80;;
25213;SDS011;13160;51.834;4.706;2023-06-14T00:45:20;10.77;;;5.20;;
25213;SDS011;13160;51.834;4.706;2023-06-14T00:47:50;8.55;;;4.85;;
25213;SDS011;13160;51.834;4.706;2023-06-14T00:50:22;9.48;;;4.78;;
25213;SDS011;13160;51.834;4.706;2023-06-14T00:52:51;8.18;;;5.53;;
25213;SDS011;13160;51.834;4.706;2023-06-14T00:55:20;9.32;;;5.28;;
25213;SDS011;13160;51.834;4.706;2023-06-14T00:57:48;9.82;;;5.40;;
25213;SDS011;13160;51.834;4.706;2023-06-14T01:00:17;8.82;;;5.22;;
25213;SDS011;13160;51.834;4.706;2023-06-14T01:02:46;8.50;;;4.93;;
25213;SDS011;13160;51.834;4.706;2023-06-14T01:05:17;8.85;;;5.45;;
25213;SDS011;13160;51.834;4.706;2023-06-14T01:07:50;8.38;;;5.90;;
25213;SDS011;13160;51.834;4.706;2023-06-14T01:10:35;8.02;;;5.60;;
25213;SDS011;13160;51.834;4.706;2023-06-14T01:13:10;8.63;;;5.13;;
25213;SDS011;13160;51.834;4.706;2023-06-14T01:15:48;11.48;;;5.22;;
25213;SDS011;13160;51.834;4.706;2023-06-14T01:18:18;9.15;;;5.30;;
25213;SDS011;13160;51.834;4.706;2023-06-14T01:20:48;10.88;;;5.43;;
25213;SDS011;13160;51.834;4.706;2023-06-14T01:23:23;8.73;;;5.43;;
25213;SDS011;13160;51.834;4.706;2023-06-14T01:25:59;7.57;;;5.10;;
25213;SDS011;13160;51.834;4.706;2023-06-14T01:28:30;10.10;;;5.07;;
25213;SDS011;13160;51.834;4.706;2023-06-14T01:31:01;11.32;;;5.07;;
25213;SDS011;13160;51.834;4.706;2023-06-14T01:33:31;11.50;;;5.85;;
25213;SDS011;13160;51.834;4.706;2023-06-14T01:36:01;9.38;;;4.97;;
25213;SDS011;13160;51.834;4.706;2023-06-14T01:38:34;7.80;;;5.13;;
25213;SDS011;13160;51.834;4.706;2023-06-14T01:41:04;8.52;;;4.88;;
25213;SDS011;13160;51.834;4.706;2023-06-14T01:43:33;7.05;;;4.45;;
25213;SDS011;13160;51.834;4.706;2023-06-14T01:46:03;8.63;;;5.60;;
25213;SDS011;13160;51.834;4.706;2023-06-14T01:48:32;10.88;;;5.30;;
25213;SDS011;13160;51.834;4.706;2023-06-14T01:51:01;12.90;;;5.15;;
25213;SDS011;13160;51.834;4.706;2023-06-14T01:53:30;12.82;;;5.47;;
25213;SDS011;13160;51.834;4.706;2023-06-14T01:56:00;9.68;;;4.85;;
25213;SDS011;13160;51.834;4.706;2023-06-14T01:58:28;11.45;;;5.07;;
25213;SDS011;13160;51.834;4.706;2023-06-14T02:00:57;10.95;;;5.50;;
25213;SDS011;13160;51.834;4.706;2023-06-14T02:03:27;7.00;;;4.50;;
25213;SDS011;13160;51.834;4.706;2023-06-14T02:05:56;8.45;;;4.90;;
25213;SDS011;13160;51.834;4.706;2023-06-14T02:08:25;9.65;;;4.97;;
25213;SDS011;13160;51.834;4.706;2023-06-14T02:10:53;11.00;;;5.53;;
25213;SDS011;13160;51.834;4.706;2023-06-14T02:13:23;10.05;;;5.43;;
25213;SDS011;13160;51.834;4.706;2023-06-14T02:15:51;9.70;;;5.22;;
25213;SDS011;13160;51.834;4.706;2023-06-14T02:18:21;9.65;;;4.72;;
25213;SDS011;13160;51.834;4.706;2023-06-14T02:20:50;9.48;;;4.90;;
25213;SDS011;13160;51.834;4.706;2023-06-14T02:23:19;8.65;;;4.70;;
25213;SDS011;13160;51.834;4.706;2023-06-14T02:25:47;13.10;;;5.22;;
25213;SDS011;13160;51.834;4.706;2023-06-14T02:28:16;7.82;;;4.72;;
25213;SDS011;13160;51.834;4.706;2023-06-14T02:30:47;10.15;;;5.30;;
25213;SDS011;13160;51.834;4.706;2023-06-14T02:33:16;9.80;;;4.80;;
25213;SDS011;13160;51.834;4.706;2023-06-14T02:35:45;8.70;;;4.88;;
25213;SDS011;13160;51.834;4.706;2023-06-14T02:38:14;13.50;;;5.97;;
25213;SDS011;13160;51.834;4.706;2023-06-14T02:40:42;7.35;;;4.82;;
25213;SDS011;13160;51.834;4.706;2023-06-14T02:43:11;8.23;;;4.85;;
25213;SDS011;13160;51.834;4.706;2023-06-14T02:45:39;11.30;;;5.15;;
25213;SDS011;13160;51.834;4.706;2023-06-14T02:48:09;9.90;;;5.00;;
25213;SDS011;13160;51.834;4.706;2023-06-14T02:50:38;10.20;;;5.50;;
25213;SDS011;13160;51.834;4.706;2023-06-14T02:53:06;8.10;;;5.30;;
25213;SDS011;13160;51.834;4.706;2023-06-14T02:55:35;12.20;;;5.25;;
25213;SDS011;13160;51.834;4.706;2023-06-14T02:58:07;11.38;;;5.97;;
25213;SDS011;13160;51.834;4.706;2023-06-14T03:00:36;7.72;;;4.75;;
25213;SDS011;13160;51.834;4.706;2023-06-14T03:03:05;11.07;;;5.35;;
25213;SDS011;13160;51.834;4.706;2023-06-14T03:05:43;13.20;;;5.65;;
25213;SDS011;13160;51.834;4.706;2023-06-14T03:08:14;9.52;;;5.38;;
25213;SDS011;13160;51.834;4.706;2023-06-14T03:10:43;10.73;;;6.15;;
25213;SDS011;13160;51.834;4.706;2023-06-14T03:13:14;12.20;;;5.63;;
25213;SDS011;13160;51.834;4.706;2023-06-14T03:15:43;9.25;;;5.28;;
25213;SDS011;13160;51.834;4.706;2023-06-14T03:18:12;13.02;;;5.43;;
25213;SDS011;13160;51.834;4.706;2023-06-14T03:20:43;12.00;;;6.07;;
25213;SDS011;13160;51.834;4.706;2023-06-14T03:23:12;11.52;;;5.65;;
25213;SDS011;13160;51.834;4.706;2023-06-14T03:25:41;10.45;;;5.55;;
25213;SDS011;13160;51.834;4.706;2023-06-14T03:28:09;11.05;;;5.90;;
25213;SDS011;13160;51.834;4.706;2023-06-14T03:30:38;9.85;;;6.00;;
25213;SDS011;13160;51.834;4.706;2023-06-14T03:33:06;9.43;;;5.68;;
25213;SDS011;13160;51.834;4.706;2023-06-14T03:35:35;10.75;;;5.70;;
25213;SDS011;13160;51.834;4.706;2023-06-14T03:38:05;14.02;;;6.38;;
25213;SDS011;13160;51.834;4.706;2023-06-14T03:40:34;12.18;;;5.93;;
25213;SDS011;13160;51.834;4.706;2023-06-14T03:43:02;9.93;;;5.43;;
25213;SDS011;13160;51.834;4.706;2023-06-14T03:45:31;11.93;;;6.10;;
25213;SDS011;13160;51.834;4.706;2023-06-14T03:47:59;13.40;;;6.00;;
25213;SDS011;13160;51.834;4.706;2023-06-14T03:50:29;15.07;;;5.70;;
25213;SDS011;13160;51.834;4.706;2023-06-14T03:52:58;12.25;;;6.43;;
25213;SDS011;13160;51.834;4.706;2023-06-14T03:55:29;16.63;;;5.85;;
25213;SDS011;13160;51.834;4.706;2023-06-14T03:58:02;12.27;;;5.60;;
25213;SDS011;13160;51.834;4.706;2023-06-14T04:00:31;10.73;;;6.07;;
25213;SDS011;13160;51.834;4.706;2023-06-14T04:02:59;9.95;;;6.28;;
25213;SDS011;13160;51.834;4.706;2023-06-14T04:05:30;14.23;;;5.43;;
25213;SDS011;13160;51.834;4.706;2023-06-14T04:07:58;9.57;;;5.38;;
25213;SDS011;13160;51.834;4.706;2023-06-14T04:10:27;12.30;;;5.70;;
25213;SDS011;13160;51.834;4.706;2023-06-14T04:12:57;9.57;;;5.50;;
25213;SDS011;13160;51.834;4.706;2023-06-14T04:15:25;10.20;;;5.43;;
25213;SDS011;13160;51.834;4.706;2023-06-14T04:17:54;10.70;;;5.15;;
25213;SDS011;13160;51.834;4.706;2023-06-14T04:20:24;9.05;;;5.35;;
25213;SDS011;13160;51.834;4.706;2023-06-14T04:22:52;8.07;;;5.47;;
25213;SDS011;13160;51.834;4.706;2023-06-14T04:25:23;11.70;;;5.30;;
25213;SDS011;13160;51.834;4.706;2023-06-14T04:27:56;11.30;;;5.35;;
25213;SDS011;13160;51.834;4.706;2023-06-14T04:30:28;9.63;;;5.60;;
25213;SDS011;13160;51.834;4.706;2023-06-14T04:32:57;10.18;;;5.78;;
25213;SDS011;13160;51.834;4.706;2023-06-14T04:35:26;13.88;;;5.32;;
25213;SDS011;13160;51.834;4.706;2023-06-14T04:37:55;8.63;;;5.38;;
25213;SDS011;13160;51.834;4.706;2023-06-14T04:40:23;11.65;;;5.80;;
25213;SDS011;13160;51.834;4.706;2023-06-14T04:42:52;11.00;;;5.70;;
25213;SDS011;13160;51.834;4.706;2023-06-14T04:45:22;9.65;;;5.55;;
25213;SDS011;13160;51.834;4.706;2023-06-14T04:47:58;15.00;;;6.22;;
25213;SDS011;13160;51.834;4.706;2023-06-14T04:50:26;11.25;;;5.60;;
25213;SDS011;13160;51.834;4.706;2023-06-14T04:52:56;13.85;;;5.50;;
25213;SDS011;13160;51.834;4.706;2023-06-14T04:55:26;12.10;;;5.90;;
25213;SDS011;13160;51.834;4.706;2023-06-14T04:57:54;13.07;;;6.40;;
25213;SDS011;13160;51.834;4.706;2023-06-14T05:00:24;15.15;;;6.10;;
25213;SDS011;13160;51.834;4.706;2023-06-14T05:02:52;15.48;;;6.03;;
25213;SDS011;13160;51.834;4.706;2023-06-14T05:05:21;12.82;;;6.20;;
25213;SDS011;13160;51.834;4.706;2023-06-14T05:07:50;13.38;;;6.40;;
25213;SDS011;13160;51.834;4.706;2023-06-14T05:10:19;11.07;;;6.40;;
25213;SDS011;13160;51.834;4.706;2023-06-14T05:12:47;11.52;;;5.93;;
25213;SDS011;13160;51.834;4.706;2023-06-14T05:15:16;12.52;;;6.53;;
25213;SDS011;13160;51.834;4.706;2023-06-14T05:17:47;12.15;;;5.82;;
25213;SDS011;13160;51.834;4.706;2023-06-14T05:20:19;7.68;;;5.32;;
25213;SDS011;13160;51.834;4.706;2023-06-14T05:22:49;13.07;;;6.22;;
25213;SDS011;13160;51.834;4.706;2023-06-14T05:25:19;12.02;;;5.63;;
25213;SDS011;13160;51.834;4.706;2023-06-14T05:27:48;8.32;;;5.50;;
25213;SDS011;13160;51.834;4.706;2023-06-14T05:30:16;13.23;;;6.22;;
25213;SDS011;13160;51.834;4.706;2023-06-14T05:32:46;19.90;;;6.35;;
25213;SDS011;13160;51.834;4.706;2023-06-14T05:35:15;12.65;;;5.50;;
25213;SDS011;13160;51.834;4.706;2023-06-14T05:37:44;7.32;;;5.03;;
25213;SDS011;13160;51.834;4.706;2023-06-14T05:40:14;13.43;;;5.88;;
25213;SDS011;13160;51.834;4.706;2023-06-14T05:42:43;11.82;;;5.45;;
25213;SDS011;13160;51.834;4.706;2023-06-14T05:45:12;12.27;;;4.93;;
25213;SDS011;13160;51.834;4.706;2023-06-14T05:47:42;15.02;;;6.03;;
25213;SDS011;13160;51.834;4.706;2023-06-14T05:50:12;10.60;;;4.45;;
25213;SDS011;13160;51.834;4.706;2023-06-14T05:52:40;8.75;;;4.70;;
25213;SDS011;13160;51.834;4.706;2023-06-14T05:55:09;13.57;;;4.78;;
25213;SDS011;13160;51.834;4.706;2023-06-14T05:57:39;11.40;;;4.65;;
25213;SDS011;13160;51.834;4.706;2023-06-14T06:00:08;14.13;;;4.95;;
25213;SDS011;13160;51.834;4.706;2023-06-14T06:02:40;14.10;;;5.38;;
25213;SDS011;13160;51.834;4.706;2023-06-14T06:05:11;11.43;;;4.75;;
25213;SDS011;13160;51.834;4.706;2023-06-14T06:07:42;13.75;;;6.88;;
25213;SDS011;13160;51.834;4.706;2023-06-14T06:10:12;9.05;;;4.68;;
25213;SDS011;13160;51.834;4.706;2023-06-14T06:12:40;14.23;;;5.88;;
25213;SDS011;13160;51.834;4.706;2023-06-14T06:15:09;12.20;;;4.72;;
25213;SDS011;13160;51.834;4.706;2023-06-14T06:17:40;13.63;;;5.13;;
25213;SDS011;13160;51.834;4.706;2023-06-14T06:20:23;9.60;;;4.38;;
25213;SDS011;13160;51.834;4.706;2023-06-14T06:22:55;10.80;;;4.53;;
25213;SDS011;13160;51.834;4.706;2023-06-14T06:25:24;10.18;;;4.47;;
25213;SDS011;13160;51.834;4.706;2023-06-14T06:27:54;8.43;;;4.40;;
25213;SDS011;13160;51.834;4.706;2023-06-14T06:30:23;7.93;;;4.47;;
25213;SDS011;13160;51.834;4.706;2023-06-14T06:32:52;11.00;;;4.60;;
25213;SDS011;13160;51.834;4.706;2023-06-14T06:35:23;11.50;;;5.45;;
25213;SDS011;13160;51.834;4.706;2023-06-14T06:37:52;12.35;;;4.85;;
25213;SDS011;13160;51.834;4.706;2023-06-14T06:40:21;11.35;;;4.38;;
25213;SDS011;13160;51.834;4.706;2023-06-14T06:42:50;13.38;;;4.80;;
25213;SDS011;13160;51.834;4.706;2023-06-14T06:45:20;11.00;;;4.75;;
25213;SDS011;13160;51.834;4.706;2023-06-14T06:47:51;10.32;;;4.47;;
25213;SDS011;13160;51.834;4.706;2023-06-14T06:50:19;10.20;;;4.47;;
25213;SDS011;13160;51.834;4.706;2023-06-14T06:52:51;11.60;;;4.63;;
25213;SDS011;13160;51.834;4.706;2023-06-14T06:55:20;12.48;;;5.90;;
25213;SDS011;13160;51.834;4.706;2023-06-14T06:57:48;10.15;;;4.90;;
25213;SDS011;13160;51.834;4.706;2023-06-14T07:00:19;10.95;;;4.45;;
25213;SDS011;13160;51.834;4.706;2023-06-14T07:02:48;8.95;;;4.40;;
25213;SDS011;13160;51.834;4.706;2023-06-14T07:05:17;7.35;;;4.03;;
25213;SDS011;13160;51.834;4.706;2023-06-14T07:07:46;7.03;;;4.65;;
25213;SDS011;13160;51.834;4.706;2023-06-14T07:10:15;14.05;;;4.78;;
25213;SDS011;13160;51.834;4.706;2023-06-14T07:12:44;39.17;;;6.38;;
25213;SDS011;13160;51.834;4.706;2023-06-14T07:15:13;16.40;;;4.95;;
25213;SDS011;13160;51.834;4.706;2023-06-14T07:17:41;45.15;;;7.50;;
25213;SDS011;13160;51.834;4.706;2023-06-14T07:20:10;14.27;;;4.60;;
25213;SDS011;13160;51.834;4.706;2023-06-14T07:22:42;12.27;;;4.78;;
25213;SDS011;13160;51.834;4.706;2023-06-14T07:25:11;13.07;;;5.05;;
25213;SDS011;13160;51.834;4.706;2023-06-14T07:27:43;15.32;;;4.70;;
25213;SDS011;13160;51.834;4.706;2023-06-14T07:30:13;13.63;;;4.55;;
25213;SDS011;13160;51.834;4.706;2023-06-14T07:32:42;8.40;;;4.20;;
25213;SDS011;13160;51.834;4.706;2023-06-14T07:35:10;7.70;;;3.95;;
25213;SDS011;13160;51.834;4.706;2023-06-14T07:37:39;9.20;;;4.72;;
25213;SDS011;13160;51.834;4.706;2023-06-14T07:40:12;11.18;;;4.40;;
25213;SDS011;13160;51.834;4.706;2023-06-14T07:42:43;11.07;;;4.07;;
25213;SDS011;13160;51.834;4.706;2023-06-14T07:45:12;9.15;;;4.03;;
25213;SDS011;13160;51.834;4.706;2023-06-14T07:47:42;7.95;;;4.38;;
25213;SDS011;13160;51.834;4.706;2023-06-14T07:50:10;8.80;;;4.18;;
25213;SDS011;13160;51.834;4.706;2023-06-14T07:52:39;9.68;;;3.92;;
25213;SDS011;13160;51.834;4.706;2023-06-14T07:55:08;7.65;;;4.18;;
25213;SDS011;13160;51.834;4.706;2023-06-14T07:57:37;9.45;;;4.20;;
25213;SDS011;13160;51.834;4.706;2023-06-14T08:00:08;13.20;;;4.10;;
25213;SDS011;13160;51.834;4.706;2023-06-14T08:02:41;7.63;;;3.78;;
25213;SDS011;13160;51.834;4.706;2023-06-14T08:05:10;7.95;;;3.65;;
25213;SDS011;13160;51.834;4.706;2023-06-14T08:07:39;7.78;;;3.47;;
25213;SDS011;13160;51.834;4.706;2023-06-14T08:10:09;10.57;;;4.30;;
25213;SDS011;13160;51.834;4.706;2023-06-14T08:12:37;7.22;;;3.67;;
25213;SDS011;13160;51.834;4.706;2023-06-14T08:15:08;7.85;;;3.78;;
25213;SDS011;13160;51.834;4.706;2023-06-14T08:17:42;11.25;;;4.22;;
25213;SDS011;13160;51.834;4.706;2023-06-14T08:20:11;11.73;;;3.72;;
25213;SDS011;13160;51.834;4.706;2023-06-14T08:22:43;6.40;;;3.67;;
25213;SDS011;13160;51.834;4.706;2023-06-14T08:25:14;7.68;;;3.72;;
25213;SDS011;13160;51.834;4.706;2023-06-14T08:27:43;8.90;;;4.20;;
25213;SDS011;13160;51.834;4.706;2023-06-14T08:30:14;8.73;;;3.90;;
25213;SDS011;13160;51.834;4.706;2023-06-14T08:32:44;8.00;;;4.40;;
25213;SDS011;13160;51.834;4.706;2023-06-14T08:35:21;10.32;;;4.28;;
25213;SDS011;13160;51.834;4.706;2023-06-14T08:37:50;7.20;;;4.03;;
25213;SDS011;13160;51.834;4.706;2023-06-14T08:40:21;9.15;;;3.63;;
25213;SDS011;13160;51.834;4.706;2023-06-14T08:42:51;7.95;;;4.07;;
25213;SDS011;13160;51.834;4.706;2023-06-14T08:45:23;11.75;;;4.22;;
25213;SDS011;13160;51.834;4.706;2023-06-14T08:47:58;11.43;;;4.20;;
25213;SDS011;13160;51.834;4.706;2023-06-14T08:50:28;9.70;;;3.92;;
25213;SDS011;13160;51.834;4.706;2023-06-14T08:52:59;7.70;;;3.60;;
25213;SDS011;13160;51.834;4.706;2023-06-14T08:55:31;11.30;;;3.42;;
25213;SDS011;13160;51.834;4.706;2023-06-14T08:58:03;8.85;;;3.58;;
25213;SDS011;13160;51.834;4.706;2023-06-14T09:00:34;12.35;;;3.95;;
25213;SDS011;13160;51.834;4.706;2023-06-14T09:03:04;10.07;;;3.50;;
25213;SDS011;13160;51.834;4.706;2023-06-14T09:05:39;62.00;;;6.82;;
25213;SDS011;13160;51.834;4.706;2023-06-14T09:08:08;21.65;;;5.75;;
25213;SDS011;13160;51.834;4.706;2023-06-14T09:10:37;11.35;;;3.70;;
25213;SDS011;13160;51.834;4.706;2023-06-14T09:13:07;32.00;;;5.97;;
25213;SDS011;13160;51.834;4.706;2023-06-14T09:15:37;8.30;;;3.22;;
25213;SDS011;13160;51.834;4.706;2023-06-14T09:18:05;6.22;;;3.45;;
25213;SDS011;13160;51.834;4.706;2023-06-14T09:20:34;5.65;;;3.42;;
25213;SDS011;13160;51.834;4.706;2023-06-14T09:23:04;7.80;;;3.92;;
25213;SDS011;13160;51.834;4.706;2023-06-14T09:25:41;5.18;;;3.13;;
25213;SDS011;13160;51.834;4.706;2023-06-14T09:28:11;20.85;;;3.90;;
25213;SDS011;13160;51.834;4.706;2023-06-14T09:30:41;8.00;;;3.60;;
25213;SDS011;13160;51.834;4.706;2023-06-14T09:33:10;5.72;;;3.55;;
25213;SDS011;13160;51.834;4.706;2023-06-14T09:35:45;7.63;;;3.22;;
25213;SDS011;13160;51.834;4.706;2023-06-14T09:38:13;7.53;;;3.03;;
25213;SDS011;13160;51.834;4.706;2023-06-14T09:40:42;6.85;;;3.05;;
25213;SDS011;13160;51.834;4.706;2023-06-14T09:43:10;6.30;;;3.33;;
25213;SDS011;13160;51.834;4.706;2023-06-14T09:45:38;6.15;;;2.90;;
25213;SDS011;13160;51.834;4.706;2023-06-14T09:48:09;7.95;;;2.67;;
25213;SDS011;13160;51.834;4.706;2023-06-14T09:50:39;10.18;;;3.20;;
25213;SDS011;13160;51.834;4.706;2023-06-14T09:53:08;86.30;;;11.10;;
25213;SDS011;13160;51.834;4.706;2023-06-14T09:55:40;9.52;;;3.22;;
25213;SDS011;13160;51.834;4.706;2023-06-14T09:58:09;6.03;;;2.70;;
25213;SDS011;13160;51.834;4.706;2023-06-14T10:00:39;8.23;;;3.10;;
25213;SDS011;13160;51.834;4.706;2023-06-14T10:03:13;8.38;;;2.90;;
25213;SDS011;13160;51.834;4.706;2023-06-14T10:05:45;9.55;;;2.97;;
25213;SDS011;13160;51.834;4.706;2023-06-14T10:08:16;7.57;;;2.50;;
25213;SDS011;13160;51.834;4.706;2023-06-14T10:10:48;8.38;;;2.78;;
25213;SDS011;13160;51.834;4.706;2023-06-14T10:13:16;4.00;;;2.60;;
25213;SDS011;13160;51.834;4.706;2023-06-14T10:15:48;3.95;;;2.58;;
25213;SDS011;13160;51.834;4.706;2023-06-14T10:18:30;6.75;;;2.55;;
25213;SDS011;13160;51.834;4.706;2023-06-14T10:21:08;6.90;;;2.67;;
25213;SDS011;13160;51.834;4.706;2023-06-14T10:23:49;4.45;;;2.30;;
25213;SDS011;13160;51.834;4.706;2023-06-14T10:26:28;9.40;;;2.50;;
25213;SDS011;13160;51.834;4.706;2023-06-14T10:28:58;4.68;;;2.08;;
25213;SDS011;13160;51.834;4.706;2023-06-14T10:34:22;6.65;;;2.20;;
25213;SDS011;13160;51.834;4.706;2023-06-14T10:37:00;5.55;;;2.00;;
25213;SDS011;13160;51.834;4.706;2023-06-14T10:39:37;5.07;;;1.80;;
25213;SDS011;13160;51.834;4.706;2023-06-14T10:42:11;6.32;;;2.40;;
25213;SDS011;13160;51.834;4.706;2023-06-14T10:44:41;4.28;;;2.10;;
25213;SDS011;13160;51.834;4.706;2023-06-14T10:47:26;8.50;;;2.10;;
25213;SDS011;13160;51.834;4.706;2023-06-14T10:50:17;7.10;;;1.90;;
25213;SDS011;13160;51.834;4.706;2023-06-14T10:52:48;4.90;;;1.75;;
25213;SDS011;13160;51.834;4.706;2023-06-14T10:55:18;4.20;;;1.70;;
25213;SDS011;13160;51.834;4.706;2023-06-14T10:57:52;5.13;;;1.70;;
25213;SDS011;13160;51.834;4.706;2023-06-14T11:00:34;5.47;;;1.95;;
25213;SDS011;13160;51.834;4.706;2023-06-14T11:03:26;8.05;;;2.00;;
25213;SDS011;13160;51.834;4.706;2023-06-14T11:06:16;7.68;;;1.92;;
25213;SDS011;13160;51.834;4.706;2023-06-14T11:09:13;5.50;;;1.70;;
25213;SDS011;13160;51.834;4.706;2023-06-14T11:12:21;4.45;;;1.83;;
25213;SDS011;13160;51.834;4.706;2023-06-14T11:14:53;2.78;;;1.63;;
25213;SDS011;13160;51.834;4.706;2023-06-14T11:17:21;4.95;;;1.70;;
25213;SDS011;13160;51.834;4.706;2023-06-14T11:19:50;6.95;;;1.67;;
25213;SDS011;13160;51.834;4.706;2023-06-14T11:22:40;6.22;;;2.20;;
25213;SDS011;13160;51.834;4.706;2023-06-14T11:25:09;3.45;;;1.80;;
25213;SDS011;13160;51.834;4.706;2023-06-14T11:27:41;3.13;;;1.83;;
25213;SDS011;13160;51.834;4.706;2023-06-14T11:30:10;9.77;;;1.92;;
25213;SDS011;13160;51.834;4.706;2023-06-14T11:32:40;6.90;;;1.90;;
25213;SDS011;13160;51.834;4.706;2023-06-14T11:35:08;4.30;;;1.95;;
25213;SDS011;13160;51.834;4.706;2023-06-14T11:37:38;4.50;;;1.83;;
25213;SDS011;13160;51.834;4.706;2023-06-14T11:40:09;5.72;;;1.75;;
25213;SDS011;13160;51.834;4.706;2023-06-14T11:42:40;6.10;;;1.80;;
25213;SDS011;13160;51.834;4.706;2023-06-14T11:45:09;6.43;;;1.98;;
25213;SDS011;13160;51.834;4.706;2023-06-14T11:47:39;3.55;;;1.98;;
25213;SDS011;13160;51.834;4.706;2023-06-14T11:50:08;6.53;;;2.00;;
25213;SDS011;13160;51.834;4.706;2023-06-14T11:52:37;3.50;;;1.95;;
25213;SDS011;13160;51.834;4.706;2023-06-14T11:55:08;6.05;;;1.70;;
25213;SDS011;13160;51.834;4.706;2023-06-14T11:57:37;3.70;;;1.50;;
25213;SDS011;13160;51.834;4.706;2023-06-14T12:00:06;4.82;;;1.85;;
25213;SDS011;13160;51.834;4.706;2023-06-14T12:02:38;4.10;;;1.83;;
25213;SDS011;13160;51.834;4.706;2023-06-14T12:05:08;4.43;;;1.73;;
25213;SDS011;13160;51.834;4.706;2023-06-14T12:07:37;5.50;;;2.10;;
25213;SDS011;13160;51.834;4.706;2023-06-14T12:10:09;3.58;;;1.85;;
25213;SDS011;13160;51.834;4.706;2023-06-14T12:12:39;4.53;;;1.90;;
25213;SDS011;13160;51.834;4.706;2023-06-14T12:15:09;5.20;;;1.77;;
25213;SDS011;13160;51.834;4.706;2023-06-14T12:17:39;3.97;;;1.90;;
25213;SDS011;13160;51.834;4.706;2023-06-14T12:20:10;3.72;;;2.15;;
25213;SDS011;13160;51.834;4.706;2023-06-14T12:22:52;4.15;;;1.90;;
25213;SDS011;13160;51.834;4.706;2023-06-14T12:25:24;4.10;;;2.10;;
25213;SDS011;13160;51.834;4.706;2023-06-14T12:27:57;3.10;;;1.60;;
25213;SDS011;13160;51.834;4.706;2023-06-14T12:30:26;7.07;;;2.30;;
25213;SDS011;13160;51.834;4.706;2023-06-14T12:32:55;3.88;;;1.88;;
25213;SDS011;13160;51.834;4.706;2023-06-14T12:35:24;7.75;;;1.70;;
25213;SDS011;13160;51.834;4.706;2023-06-14T12:37:55;3.15;;;1.83;;
25213;SDS011;13160;51.834;4.706;2023-06-14T12:40:25;3.92;;;2.10;;
25213;SDS011;13160;51.834;4.706;2023-06-14T12:42:54;11.30;;;2.20;;
25213;SDS011;13160;51.834;4.706;2023-06-14T12:45:22;10.75;;;1.88;;
25213;SDS011;13160;51.834;4.706;2023-06-14T12:47:51;4.57;;;1.90;;
25213;SDS011;13160;51.834;4.706;2023-06-14T12:50:20;7.40;;;1.90;;
25213;SDS011;13160;51.834;4.706;2023-06-14T12:52:52;5.07;;;2.10;;
25213;SDS011;13160;51.834;4.706;2023-06-14T12:55:20;5.88;;;2.00;;
25213;SDS011;13160;51.834;4.706;2023-06-14T12:57:50;4.35;;;2.20;;
25213;SDS011;13160;51.834;4.706;2023-06-14T13:00:19;3.80;;;1.92;;
25213;SDS011;13160;51.834;4.706;2023-06-14T13:02:48;6.38;;;2.08;;
25213;SDS011;13160;51.834;4.706;2023-06-14T13:05:17;4.95;;;1.75;;
25213;SDS011;13160;51.834;4.706;2023-06-14T13:07:46;5.90;;;1.90;;
25213;SDS011;13160;51.834;4.706;2023-06-14T13:10:14;3.80;;;1.73;;
25213;SDS011;13160;51.834;4.706;2023-06-14T13:12:43;4.50;;;1.77;;
25213;SDS011;13160;51.834;4.706;2023-06-14T13:15:14;3.67;;;1.95;;
25213;SDS011;13160;51.834;4.706;2023-06-14T13:17:45;4.22;;;2.13;;
25213;SDS011;13160;51.834;4.706;2023-06-14T13:20:15;3.38;;;1.83;;
25213;SDS011;13160;51.834;4.706;2023-06-14T13:22:48;3.83;;;2.35;;
25213;SDS011;13160;51.834;4.706;2023-06-14T13:28:07;7.00;;;2.03;;
25213;SDS011;13160;51.834;4.706;2023-06-14T13:30:46;7.95;;;2.30;;
25213;SDS011;13160;51.834;4.706;2023-06-14T13:33:16;5.28;;;1.80;;
25213;SDS011;13160;51.834;4.706;2023-06-14T13:35:45;5.38;;;1.90;;
25213;SDS011;13160;51.834;4.706;2023-06-14T13:38:15;4.97;;;1.90;;
25213;SDS011;13160;51.834;4.706;2023-06-14T13:40:43;4.75;;;1.67;;
25213;SDS011;13160;51.834;4.706;2023-06-14T13:43:14;2.85;;;1.70;;
25213;SDS011;13160;51.834;4.706;2023-06-14T13:45:54;5.10;;;2.00;;
25213;SDS011;13160;51.834;4.706;2023-06-14T13:48:25;6.78;;;2.00;;
25213;SDS011;13160;51.834;4.706;2023-06-14T13:50:55;6.82;;;2.13;;
25213;SDS011;13160;51.834;4.706;2023-06-14T13:53:24;5.57;;;1.90;;
25213;SDS011;13160;51.834;4.706;2023-06-14T13:55:54;5.88;;;2.00;;
25213;SDS011;13160;51.834;4.706;2023-06-14T13:58:37;5.88;;;2.08;;
25213;SDS011;13160;51.834;4.706;2023-06-14T14:01:10;5.53;;;1.95;;
25213;SDS011;13160;51.834;4.706;2023-06-14T14:03:39;5.20;;;2.00;;
25213;SDS011;13160;51.834;4.706;2023-06-14T14:06:25;3.65;;;2.00;;
25213;SDS011;13160;51.834;4.706;2023-06-14T14:08:56;4.03;;;2.28;;
25213;SDS011;13160;51.834;4.706;2023-06-14T14:11:30;4.30;;;2.20;;
25213;SDS011;13160;51.834;4.706;2023-06-14T14:14:09;4.68;;;1.92;;
25213;SDS011;13160;51.834;4.706;2023-06-14T14:16:52;3.13;;;2.05;;
25213;SDS011;13160;51.834;4.706;2023-06-14T14:19:21;5.93;;;1.92;;
25213;SDS011;13160;51.834;4.706;2023-06-14T14:21:50;5.47;;;1.83;;
25213;SDS011;13160;51.834;4.706;2023-06-14T14:24:20;4.65;;;2.17;;
25213;SDS011;13160;51.834;4.706;2023-06-14T14:26:50;3.58;;;1.95;;
25213;SDS011;13160;51.834;4.706;2023-06-14T14:29:28;3.80;;;1.75;;
25213;SDS011;13160;51.834;4.706;2023-06-14T14:31:58;3.22;;;1.70;;
25213;SDS011;13160;51.834;4.706;2023-06-14T14:34:26;3.13;;;1.70;;
25213;SDS011;13160;51.834;4.706;2023-06-14T14:36:55;5.80;;;2.10;;
25213;SDS011;13160;51.834;4.706;2023-06-14T14:39:23;7.13;;;1.95;;
25213;SDS011;13160;51.834;4.706;2023-06-14T14:41:53;3.22;;;1.73;;
25213;SDS011;13160;51.834;4.706;2023-06-14T14:44:21;3.83;;;1.60;;
25213;SDS011;13160;51.834;4.706;2023-06-14T14:46:49;7.63;;;2.05;;
25213;SDS011;13160;51.834;4.706;2023-06-14T14:49:24;6.13;;;1.80;;
25213;SDS011;13160;51.834;4.706;2023-06-14T14:51:52;4.80;;;2.00;;
25213;SDS011;13160;51.834;4.706;2023-06-14T14:54:47;5.65;;;1.90;;
25213;SDS011;13160;51.834;4.706;2023-06-14T14:57:29;6.80;;;2.10;;
25213;SDS011;13160;51.834;4.706;2023-06-14T15:00:00;4.82;;;1.70;;
25213;SDS011;13160;51.834;4.706;2023-06-14T15:02:35;6.65;;;2.22;;
25213;SDS011;13160;51.834;4.706;2023-06-14T15:05:06;4.45;;;2.00;;
25213;SDS011;13160;51.834;4.706;2023-06-14T15:07:40;4.35;;;2.00;;
25213;SDS011;13160;51.834;4.706;2023-06-14T15:10:12;6.82;;;2.28;;